Coosawatchie, South Carolina
Current Conditions -  °F | °C
As of 9:56 PM on Friday 19 Dec 2014 (Local Time) from KNBC Reporting Station
Clear Clear  
Wind Chill: 52°   Ceiling: Unl
Heat Index: 52°   Visibility: 10mi
Dew Point: 48°   Wind: 3mph
Humidity: 86%   Direction: 40°NE
Pressure: 30.14"   Gusts: NA
Location:  32.4889°N, 80.9891°W
Report Text: KNBC 200256Z AUTO 04003KT 10SM CLR 11/09 A3014 RMK AO2 SLP207 T01110089 51008 $
Loading
Personal Weather Stations






























Interactive Weather Map New forecast layout! Learn more

10-Day Weather Forecast

Advertisements
Track Severe Weather on mobile